sensor_id;sensor_type;location;lat;lon;timestamp;P1;durP1;ratioP1;P2;durP2;ratioP2
61895;SDS011;47835;52.778;5.956;2022-11-20T00:01:40;8.30;;;4.88;;
61895;SDS011;47835;52.778;5.956;2022-11-20T00:04:05;6.63;;;4.97;;
61895;SDS011;47835;52.778;5.956;2022-11-20T00:06:31;6.25;;;4.80;;
61895;SDS011;47835;52.778;5.956;2022-11-20T00:08:57;7.40;;;4.97;;
61895;SDS011;47835;52.778;5.956;2022-11-20T00:11:25;8.07;;;5.47;;
61895;SDS011;47835;52.778;5.956;2022-11-20T00:13:53;7.78;;;4.80;;
61895;SDS011;47835;52.778;5.956;2022-11-20T00:16:21;7.13;;;4.45;;
61895;SDS011;47835;52.778;5.956;2022-11-20T00:18:48;6.90;;;5.00;;
61895;SDS011;47835;52.778;5.956;2022-11-20T00:21:16;6.38;;;4.53;;
61895;SDS011;47835;52.778;5.956;2022-11-20T00:23:46;5.90;;;4.07;;
61895;SDS011;47835;52.778;5.956;2022-11-20T00:26:13;5.97;;;4.35;;
61895;SDS011;47835;52.778;5.956;2022-11-20T00:28:40;7.00;;;4.75;;
61895;SDS011;47835;52.778;5.956;2022-11-20T00:31:08;7.07;;;4.45;;
61895;SDS011;47835;52.778;5.956;2022-11-20T00:33:35;6.88;;;4.75;;
61895;SDS011;47835;52.778;5.956;2022-11-20T00:36:05;5.65;;;4.18;;
61895;SDS011;47835;52.778;5.956;2022-11-20T00:38:32;6.68;;;4.20;;
61895;SDS011;47835;52.778;5.956;2022-11-20T00:40:59;6.38;;;4.32;;
61895;SDS011;47835;52.778;5.956;2022-11-20T00:43:32;6.22;;;3.97;;
61895;SDS011;47835;52.778;5.956;2022-11-20T00:45:58;6.47;;;3.97;;
61895;SDS011;47835;52.778;5.956;2022-11-20T00:48:25;5.22;;;4.18;;
61895;SDS011;47835;52.778;5.956;2022-11-20T00:50:51;6.20;;;3.85;;
61895;SDS011;47835;52.778;5.956;2022-11-20T00:53:17;5.82;;;4.30;;
61895;SDS011;47835;52.778;5.956;2022-11-20T00:55:51;6.18;;;4.47;;
61895;SDS011;47835;52.778;5.956;2022-11-20T00:58:22;6.07;;;3.80;;
61895;SDS011;47835;52.778;5.956;2022-11-20T01:00:48;5.30;;;3.55;;
61895;SDS011;47835;52.778;5.956;2022-11-20T01:03:17;6.05;;;4.35;;
61895;SDS011;47835;52.778;5.956;2022-11-20T01:05:43;5.28;;;3.72;;
61895;SDS011;47835;52.778;5.956;2022-11-20T01:08:09;6.20;;;4.03;;
61895;SDS011;47835;52.778;5.956;2022-11-20T01:10:34;5.90;;;3.90;;
61895;SDS011;47835;52.778;5.956;2022-11-20T01:13:00;4.90;;;3.75;;
61895;SDS011;47835;52.778;5.956;2022-11-20T01:15:44;6.32;;;3.88;;
61895;SDS011;47835;52.778;5.956;2022-11-20T01:18:09;6.18;;;3.90;;
61895;SDS011;47835;52.778;5.956;2022-11-20T01:20:35;5.70;;;3.88;;
61895;SDS011;47835;52.778;5.956;2022-11-20T01:23:02;5.70;;;3.70;;
61895;SDS011;47835;52.778;5.956;2022-11-20T01:25:28;4.03;;;3.03;;
61895;SDS011;47835;52.778;5.956;2022-11-20T01:27:54;5.10;;;3.80;;
61895;SDS011;47835;52.778;5.956;2022-11-20T01:30:19;4.82;;;3.50;;
61895;SDS011;47835;52.778;5.956;2022-11-20T01:32:45;5.10;;;3.35;;
61895;SDS011;47835;52.778;5.956;2022-11-20T01:35:10;4.95;;;3.38;;
61895;SDS011;47835;52.778;5.956;2022-11-20T01:37:36;5.53;;;3.60;;
61895;SDS011;47835;52.778;5.956;2022-11-20T01:40:01;4.38;;;3.10;;
61895;SDS011;47835;52.778;5.956;2022-11-20T01:42:27;4.88;;;2.95;;
61895;SDS011;47835;52.778;5.956;2022-11-20T01:48:11;4.57;;;3.40;;
61895;SDS011;47835;52.778;5.956;2022-11-20T01:50:38;5.72;;;3.47;;
61895;SDS011;47835;52.778;5.956;2022-11-20T01:53:06;4.85;;;2.95;;
61895;SDS011;47835;52.778;5.956;2022-11-20T01:55:36;4.70;;;3.42;;
61895;SDS011;47835;52.778;5.956;2022-11-20T01:58:06;4.38;;;3.20;;
61895;SDS011;47835;52.778;5.956;2022-11-20T02:00:32;5.53;;;3.65;;
61895;SDS011;47835;52.778;5.956;2022-11-20T02:03:02;4.65;;;3.33;;
61895;SDS011;47835;52.778;5.956;2022-11-20T02:08:28;4.22;;;2.63;;
61895;SDS011;47835;52.778;5.956;2022-11-20T02:10:54;4.00;;;2.90;;
61895;SDS011;47835;52.778;5.956;2022-11-20T02:13:19;3.95;;;2.95;;
61895;SDS011;47835;52.778;5.956;2022-11-20T02:16:04;4.32;;;3.08;;
61895;SDS011;47835;52.778;5.956;2022-11-20T02:18:39;4.57;;;3.13;;
61895;SDS011;47835;52.778;5.956;2022-11-20T02:21:52;4.03;;;3.03;;
61895;SDS011;47835;52.778;5.956;2022-11-20T02:24:28;4.47;;;2.90;;
61895;SDS011;47835;52.778;5.956;2022-11-20T02:26:59;3.97;;;2.72;;
61895;SDS011;47835;52.778;5.956;2022-11-20T02:29:36;3.75;;;2.67;;
61895;SDS011;47835;52.778;5.956;2022-11-20T02:32:22;4.53;;;2.95;;
61895;SDS011;47835;52.778;5.956;2022-11-20T02:34:55;4.00;;;2.70;;
61895;SDS011;47835;52.778;5.956;2022-11-20T02:37:21;3.85;;;2.58;;
61895;SDS011;47835;52.778;5.956;2022-11-20T02:39:47;3.83;;;2.83;;
61895;SDS011;47835;52.778;5.956;2022-11-20T02:42:16;3.65;;;2.72;;
61895;SDS011;47835;52.778;5.956;2022-11-20T02:44:42;4.03;;;2.70;;
61895;SDS011;47835;52.778;5.956;2022-11-20T02:47:07;4.43;;;2.60;;
61895;SDS011;47835;52.778;5.956;2022-11-20T02:49:33;4.05;;;3.08;;
61895;SDS011;47835;52.778;5.956;2022-11-20T02:51:59;4.30;;;2.78;;
61895;SDS011;47835;52.778;5.956;2022-11-20T02:54:25;3.53;;;2.60;;
61895;SDS011;47835;52.778;5.956;2022-11-20T02:56:50;4.15;;;2.55;;
61895;SDS011;47835;52.778;5.956;2022-11-20T02:59:16;4.18;;;2.78;;
61895;SDS011;47835;52.778;5.956;2022-11-20T03:01:42;3.78;;;2.75;;
61895;SDS011;47835;52.778;5.956;2022-11-20T03:04:07;3.90;;;2.63;;
61895;SDS011;47835;52.778;5.956;2022-11-20T03:06:33;3.75;;;2.75;;
61895;SDS011;47835;52.778;5.956;2022-11-20T03:08:58;4.13;;;2.83;;
61895;SDS011;47835;52.778;5.956;2022-11-20T03:11:24;3.85;;;2.25;;
61895;SDS011;47835;52.778;5.956;2022-11-20T03:13:49;3.90;;;2.40;;
61895;SDS011;47835;52.778;5.956;2022-11-20T03:16:16;3.80;;;2.60;;
61895;SDS011;47835;52.778;5.956;2022-11-20T03:18:44;4.20;;;2.63;;
61895;SDS011;47835;52.778;5.956;2022-11-20T03:21:11;3.53;;;2.53;;
61895;SDS011;47835;52.778;5.956;2022-11-20T03:23:38;3.72;;;2.85;;
61895;SDS011;47835;52.778;5.956;2022-11-20T03:26:23;3.80;;;2.42;;
61895;SDS011;47835;52.778;5.956;2022-11-20T03:28:51;3.75;;;2.67;;
61895;SDS011;47835;52.778;5.956;2022-11-20T03:31:23;4.60;;;2.80;;
61895;SDS011;47835;52.778;5.956;2022-11-20T03:33:51;3.25;;;2.00;;
61895;SDS011;47835;52.778;5.956;2022-11-20T03:36:17;4.35;;;2.83;;
61895;SDS011;47835;52.778;5.956;2022-11-20T03:38:44;3.25;;;2.30;;
61895;SDS011;47835;52.778;5.956;2022-11-20T03:41:11;3.40;;;2.00;;
61895;SDS011;47835;52.778;5.956;2022-11-20T03:43:38;3.38;;;2.47;;
61895;SDS011;47835;52.778;5.956;2022-11-20T03:46:04;2.90;;;2.22;;
61895;SDS011;47835;52.778;5.956;2022-11-20T03:48:31;3.85;;;2.70;;
61895;SDS011;47835;52.778;5.956;2022-11-20T03:51:10;3.97;;;2.65;;
61895;SDS011;47835;52.778;5.956;2022-11-20T03:53:40;3.47;;;2.50;;
61895;SDS011;47835;52.778;5.956;2022-11-20T03:56:07;3.72;;;2.25;;
61895;SDS011;47835;52.778;5.956;2022-11-20T03:58:34;3.47;;;2.33;;
61895;SDS011;47835;52.778;5.956;2022-11-20T04:01:07;3.92;;;2.55;;
61895;SDS011;47835;52.778;5.956;2022-11-20T04:03:35;3.67;;;2.22;;
61895;SDS011;47835;52.778;5.956;2022-11-20T04:06:09;3.60;;;2.20;;
61895;SDS011;47835;52.778;5.956;2022-11-20T04:08:39;3.63;;;2.20;;
61895;SDS011;47835;52.778;5.956;2022-11-20T04:13:37;3.38;;;2.33;;
61895;SDS011;47835;52.778;5.956;2022-11-20T04:16:04;3.22;;;2.30;;
61895;SDS011;47835;52.778;5.956;2022-11-20T04:18:30;3.28;;;2.25;;
61895;SDS011;47835;52.778;5.956;2022-11-20T04:20:57;3.50;;;2.10;;
61895;SDS011;47835;52.778;5.956;2022-11-20T04:23:23;3.55;;;2.35;;
61895;SDS011;47835;52.778;5.956;2022-11-20T04:25:49;3.33;;;2.00;;
61895;SDS011;47835;52.778;5.956;2022-11-20T04:28:14;3.50;;;2.47;;
61895;SDS011;47835;52.778;5.956;2022-11-20T04:30:40;3.13;;;2.22;;
61895;SDS011;47835;52.778;5.956;2022-11-20T04:33:05;3.33;;;2.10;;
61895;SDS011;47835;52.778;5.956;2022-11-20T04:35:33;3.72;;;2.38;;
61895;SDS011;47835;52.778;5.956;2022-11-20T04:37:59;3.38;;;2.20;;
61895;SDS011;47835;52.778;5.956;2022-11-20T04:40:25;3.22;;;2.20;;
61895;SDS011;47835;52.778;5.956;2022-11-20T04:42:50;3.65;;;2.50;;
61895;SDS011;47835;52.778;5.956;2022-11-20T04:45:16;3.40;;;2.00;;
61895;SDS011;47835;52.778;5.956;2022-11-20T04:47:41;3.17;;;2.10;;
61895;SDS011;47835;52.778;5.956;2022-11-20T04:50:07;3.30;;;2.03;;
61895;SDS011;47835;52.778;5.956;2022-11-20T04:52:33;3.95;;;2.08;;
61895;SDS011;47835;52.778;5.956;2022-11-20T04:54:59;2.80;;;2.08;;
61895;SDS011;47835;52.778;5.956;2022-11-20T04:57:24;3.03;;;2.10;;
61895;SDS011;47835;52.778;5.956;2022-11-20T04:59:50;3.22;;;2.17;;
61895;SDS011;47835;52.778;5.956;2022-11-20T05:02:15;3.25;;;2.00;;
61895;SDS011;47835;52.778;5.956;2022-11-20T05:04:41;3.50;;;2.30;;
61895;SDS011;47835;52.778;5.956;2022-11-20T05:07:06;4.10;;;2.47;;
61895;SDS011;47835;52.778;5.956;2022-11-20T05:09:32;3.38;;;2.25;;
61895;SDS011;47835;52.778;5.956;2022-11-20T05:11:57;3.65;;;2.15;;
61895;SDS011;47835;52.778;5.956;2022-11-20T05:14:23;3.90;;;2.53;;
61895;SDS011;47835;52.778;5.956;2022-11-20T05:16:48;2.60;;;1.98;;
61895;SDS011;47835;52.778;5.956;2022-11-20T05:19:14;3.70;;;2.30;;
61895;SDS011;47835;52.778;5.956;2022-11-20T05:21:40;3.25;;;2.22;;
61895;SDS011;47835;52.778;5.956;2022-11-20T05:24:05;2.50;;;1.67;;
61895;SDS011;47835;52.778;5.956;2022-11-20T05:26:31;3.22;;;2.25;;
61895;SDS011;47835;52.778;5.956;2022-11-20T05:28:57;3.58;;;2.20;;
61895;SDS011;47835;52.778;5.956;2022-11-20T05:33:49;4.65;;;2.50;;
61895;SDS011;47835;52.778;5.956;2022-11-20T05:36:15;3.05;;;1.95;;
61895;SDS011;47835;52.778;5.956;2022-11-20T05:38:41;4.43;;;2.53;;
61895;SDS011;47835;52.778;5.956;2022-11-20T05:41:08;2.85;;;1.83;;
61895;SDS011;47835;52.778;5.956;2022-11-20T05:43:36;4.40;;;2.30;;
61895;SDS011;47835;52.778;5.956;2022-11-20T05:46:03;3.35;;;2.22;;
61895;SDS011;47835;52.778;5.956;2022-11-20T05:48:29;3.30;;;2.30;;
61895;SDS011;47835;52.778;5.956;2022-11-20T05:50:59;4.03;;;2.70;;
61895;SDS011;47835;52.778;5.956;2022-11-20T05:53:27;3.17;;;1.88;;
61895;SDS011;47835;52.778;5.956;2022-11-20T05:55:56;5.03;;;2.70;;
61895;SDS011;47835;52.778;5.956;2022-11-20T05:58:25;3.83;;;2.60;;
61895;SDS011;47835;52.778;5.956;2022-11-20T06:00:51;3.63;;;2.13;;
61895;SDS011;47835;52.778;5.956;2022-11-20T06:03:17;3.35;;;2.28;;
61895;SDS011;47835;52.778;5.956;2022-11-20T06:05:43;3.10;;;1.98;;
61895;SDS011;47835;52.778;5.956;2022-11-20T06:08:08;3.80;;;2.33;;
61895;SDS011;47835;52.778;5.956;2022-11-20T06:10:34;3.30;;;2.10;;
61895;SDS011;47835;52.778;5.956;2022-11-20T06:12:59;3.40;;;2.10;;
61895;SDS011;47835;52.778;5.956;2022-11-20T06:15:25;3.40;;;2.13;;
61895;SDS011;47835;52.778;5.956;2022-11-20T06:17:54;3.00;;;2.00;;
61895;SDS011;47835;52.778;5.956;2022-11-20T06:20:21;3.22;;;2.17;;
61895;SDS011;47835;52.778;5.956;2022-11-20T06:22:46;3.45;;;2.28;;
61895;SDS011;47835;52.778;5.956;2022-11-20T06:25:12;4.43;;;2.50;;
61895;SDS011;47835;52.778;5.956;2022-11-20T06:27:38;3.33;;;2.15;;
61895;SDS011;47835;52.778;5.956;2022-11-20T06:30:04;3.58;;;2.40;;
61895;SDS011;47835;52.778;5.956;2022-11-20T06:32:30;3.67;;;2.22;;
61895;SDS011;47835;52.778;5.956;2022-11-20T06:34:56;3.50;;;2.30;;
61895;SDS011;47835;52.778;5.956;2022-11-20T06:37:21;3.80;;;2.20;;
61895;SDS011;47835;52.778;5.956;2022-11-20T06:39:47;3.28;;;2.08;;
61895;SDS011;47835;52.778;5.956;2022-11-20T06:42:12;3.17;;;2.10;;
61895;SDS011;47835;52.778;5.956;2022-11-20T06:44:38;3.40;;;2.22;;
61895;SDS011;47835;52.778;5.956;2022-11-20T06:47:03;4.10;;;2.08;;
61895;SDS011;47835;52.778;5.956;2022-11-20T06:49:29;4.00;;;2.50;;
61895;SDS011;47835;52.778;5.956;2022-11-20T06:51:55;3.40;;;2.10;;
61895;SDS011;47835;52.778;5.956;2022-11-20T06:54:20;3.40;;;2.03;;
61895;SDS011;47835;52.778;5.956;2022-11-20T06:56:48;3.38;;;2.20;;
61895;SDS011;47835;52.778;5.956;2022-11-20T06:59:14;3.40;;;2.33;;
61895;SDS011;47835;52.778;5.956;2022-11-20T07:01:40;4.38;;;2.53;;
61895;SDS011;47835;52.778;5.956;2022-11-20T07:04:05;3.50;;;2.45;;
61895;SDS011;47835;52.778;5.956;2022-11-20T07:06:31;4.45;;;2.17;;
61895;SDS011;47835;52.778;5.956;2022-11-20T07:08:56;4.60;;;2.35;;
61895;SDS011;47835;52.778;5.956;2022-11-20T07:11:22;3.15;;;2.20;;
61895;SDS011;47835;52.778;5.956;2022-11-20T07:13:48;3.00;;;2.15;;
61895;SDS011;47835;52.778;5.956;2022-11-20T07:16:14;3.97;;;2.22;;
61895;SDS011;47835;52.778;5.956;2022-11-20T07:18:39;3.45;;;2.30;;
61895;SDS011;47835;52.778;5.956;2022-11-20T07:21:08;3.45;;;2.35;;
61895;SDS011;47835;52.778;5.956;2022-11-20T07:23:35;3.58;;;2.15;;
61895;SDS011;47835;52.778;5.956;2022-11-20T07:26:04;2.90;;;1.73;;
61895;SDS011;47835;52.778;5.956;2022-11-20T07:28:34;3.03;;;2.22;;
61895;SDS011;47835;52.778;5.956;2022-11-20T07:31:00;3.17;;;1.98;;
61895;SDS011;47835;52.778;5.956;2022-11-20T07:33:26;3.83;;;2.50;;
61895;SDS011;47835;52.778;5.956;2022-11-20T07:35:51;3.42;;;2.10;;
61895;SDS011;47835;52.778;5.956;2022-11-20T07:38:17;3.58;;;2.22;;
61895;SDS011;47835;52.778;5.956;2022-11-20T07:40:42;3.67;;;2.17;;
61895;SDS011;47835;52.778;5.956;2022-11-20T07:43:08;3.60;;;2.10;;
61895;SDS011;47835;52.778;5.956;2022-11-20T07:45:34;3.42;;;2.47;;
61895;SDS011;47835;52.778;5.956;2022-11-20T07:47:59;3.38;;;2.38;;
61895;SDS011;47835;52.778;5.956;2022-11-20T07:50:25;3.42;;;2.50;;
61895;SDS011;47835;52.778;5.956;2022-11-20T07:52:51;3.20;;;2.30;;
61895;SDS011;47835;52.778;5.956;2022-11-20T07:55:17;3.80;;;2.40;;
61895;SDS011;47835;52.778;5.956;2022-11-20T07:57:43;3.95;;;2.30;;
61895;SDS011;47835;52.778;5.956;2022-11-20T08:00:09;3.95;;;2.33;;
61895;SDS011;47835;52.778;5.956;2022-11-20T08:02:39;3.80;;;2.55;;
61895;SDS011;47835;52.778;5.956;2022-11-20T08:05:05;3.65;;;2.28;;
61895;SDS011;47835;52.778;5.956;2022-11-20T08:07:35;4.00;;;2.42;;
61895;SDS011;47835;52.778;5.956;2022-11-20T08:10:05;3.83;;;2.53;;
61895;SDS011;47835;52.778;5.956;2022-11-20T08:12:31;4.40;;;2.60;;
61895;SDS011;47835;52.778;5.956;2022-11-20T08:15:15;3.83;;;2.50;;
61895;SDS011;47835;52.778;5.956;2022-11-20T08:17:40;3.33;;;2.20;;
61895;SDS011;47835;52.778;5.956;2022-11-20T08:20:06;3.17;;;2.13;;
61895;SDS011;47835;52.778;5.956;2022-11-20T08:22:32;3.42;;;2.35;;
61895;SDS011;47835;52.778;5.956;2022-11-20T08:24:58;4.38;;;2.38;;
61895;SDS011;47835;52.778;5.956;2022-11-20T08:27:23;3.50;;;2.55;;
61895;SDS011;47835;52.778;5.956;2022-11-20T08:29:49;5.82;;;4.63;;
61895;SDS011;47835;52.778;5.956;2022-11-20T08:32:14;5.07;;;3.28;;
61895;SDS011;47835;52.778;5.956;2022-11-20T08:34:40;6.22;;;3.50;;
61895;SDS011;47835;52.778;5.956;2022-11-20T08:37:05;8.75;;;3.72;;
61895;SDS011;47835;52.778;5.956;2022-11-20T08:39:31;4.55;;;3.28;;
61895;SDS011;47835;52.778;5.956;2022-11-20T08:41:56;5.97;;;3.78;;
61895;SDS011;47835;52.778;5.956;2022-11-20T08:44:22;5.13;;;3.50;;
61895;SDS011;47835;52.778;5.956;2022-11-20T08:46:47;12.40;;;3.58;;
61895;SDS011;47835;52.778;5.956;2022-11-20T08:49:13;10.93;;;3.95;;
61895;SDS011;47835;52.778;5.956;2022-11-20T08:51:39;6.50;;;3.72;;
61895;SDS011;47835;52.778;5.956;2022-11-20T08:54:05;5.55;;;4.20;;
61895;SDS011;47835;52.778;5.956;2022-11-20T08:56:32;13.88;;;4.13;;
61895;SDS011;47835;52.778;5.956;2022-11-20T08:58:58;8.05;;;4.07;;
61895;SDS011;47835;52.778;5.956;2022-11-20T09:01:26;6.18;;;3.92;;
61895;SDS011;47835;52.778;5.956;2022-11-20T09:03:54;8.13;;;4.65;;
61895;SDS011;47835;52.778;5.956;2022-11-20T09:06:22;8.45;;;4.07;;
61895;SDS011;47835;52.778;5.956;2022-11-20T09:08:51;6.68;;;4.10;;
61895;SDS011;47835;52.778;5.956;2022-11-20T09:11:17;6.70;;;3.83;;
61895;SDS011;47835;52.778;5.956;2022-11-20T09:13:43;6.75;;;4.88;;
61895;SDS011;47835;52.778;5.956;2022-11-20T09:16:08;6.85;;;4.85;;
61895;SDS011;47835;52.778;5.956;2022-11-20T09:18:34;7.30;;;4.75;;
61895;SDS011;47835;52.778;5.956;2022-11-20T09:21:10;7.38;;;4.10;;
61895;SDS011;47835;52.778;5.956;2022-11-20T09:23:37;7.05;;;4.38;;
61895;SDS011;47835;52.778;5.956;2022-11-20T09:26:10;7.40;;;4.80;;
61895;SDS011;47835;52.778;5.956;2022-11-20T09:28:37;11.55;;;4.35;;
61895;SDS011;47835;52.778;5.956;2022-11-20T09:31:13;6.00;;;4.40;;
61895;SDS011;47835;52.778;5.956;2022-11-20T09:36:12;6.35;;;4.85;;
61895;SDS011;47835;52.778;5.956;2022-11-20T09:38:37;7.55;;;4.68;;
61895;SDS011;47835;52.778;5.956;2022-11-20T09:41:04;6.50;;;4.32;;
61895;SDS011;47835;52.778;5.956;2022-11-20T09:46:14;7.82;;;4.53;;
61895;SDS011;47835;52.778;5.956;2022-11-20T09:48:51;6.57;;;4.50;;
61895;SDS011;47835;52.778;5.956;2022-11-20T09:51:40;7.03;;;4.70;;
61895;SDS011;47835;52.778;5.956;2022-11-20T09:56:53;7.32;;;4.30;;
61895;SDS011;47835;52.778;5.956;2022-11-20T09:59:26;5.90;;;4.03;;
61895;SDS011;47835;52.778;5.956;2022-11-20T10:02:14;5.40;;;4.07;;
61895;SDS011;47835;52.778;5.956;2022-11-20T10:04:45;6.35;;;4.55;;
61895;SDS011;47835;52.778;5.956;2022-11-20T10:07:17;6.83;;;4.37;;
61895;SDS011;47835;52.778;5.956;2022-11-20T10:09:53;5.90;;;4.38;;
61895;SDS011;47835;52.778;5.956;2022-11-20T10:12:33;8.02;;;4.38;;
61895;SDS011;47835;52.778;5.956;2022-11-20T10:21:03;6.25;;;4.22;;
61895;SDS011;47835;52.778;5.956;2022-11-20T10:29:07;5.88;;;3.60;;
61895;SDS011;47835;52.778;5.956;2022-11-20T10:32:11;6.28;;;3.85;;
61895;SDS011;47835;52.778;5.956;2022-11-20T10:34:54;5.20;;;3.50;;
61895;SDS011;47835;52.778;5.956;2022-11-20T10:37:27;5.40;;;3.58;;
61895;SDS011;47835;52.778;5.956;2022-11-20T10:42:31;5.32;;;3.80;;
61895;SDS011;47835;52.778;5.956;2022-11-20T10:45:14;4.68;;;3.55;;
61895;SDS011;47835;52.778;5.956;2022-11-20T10:47:43;5.63;;;4.18;;
61895;SDS011;47835;52.778;5.956;2022-11-20T10:50:11;6.32;;;4.57;;
61895;SDS011;47835;52.778;5.956;2022-11-20T10:55:28;6.38;;;4.68;;
61895;SDS011;47835;52.778;5.956;2022-11-20T10:58:17;8.30;;;4.78;;
61895;SDS011;47835;52.778;5.956;2022-11-20T11:01:05;18.75;;;4.93;;
61895;SDS011;47835;52.778;5.956;2022-11-20T11:03:38;6.30;;;4.55;;
61895;SDS011;47835;52.778;5.956;2022-11-20T11:08:37;8.70;;;5.13;;
61895;SDS011;47835;52.778;5.956;2022-11-20T11:11:12;16.08;;;6.38;;
61895;SDS011;47835;52.778;5.956;2022-11-20T11:13:47;13.13;;;6.78;;
61895;SDS011;47835;52.778;5.956;2022-11-20T11:16:20;12.15;;;6.10;;
61895;SDS011;47835;52.778;5.956;2022-11-20T11:18:51;9.57;;;5.93;;
61895;SDS011;47835;52.778;5.956;2022-11-20T11:21:27;11.98;;;5.78;;
61895;SDS011;47835;52.778;5.956;2022-11-20T11:24:00;8.93;;;5.78;;
61895;SDS011;47835;52.778;5.956;2022-11-20T11:26:27;9.10;;;5.35;;
61895;SDS011;47835;52.778;5.956;2022-11-20T11:28:58;10.57;;;5.53;;
61895;SDS011;47835;52.778;5.956;2022-11-20T11:31:29;8.82;;;5.70;;
61895;SDS011;47835;52.778;5.956;2022-11-20T11:34:13;8.80;;;5.90;;
61895;SDS011;47835;52.778;5.956;2022-11-20T11:36:40;8.95;;;5.72;;
61895;SDS011;47835;52.778;5.956;2022-11-20T11:39:25;8.77;;;5.35;;
61895;SDS011;47835;52.778;5.956;2022-11-20T11:41:53;9.18;;;5.50;;
61895;SDS011;47835;52.778;5.956;2022-11-20T11:44:19;9.60;;;5.57;;
61895;SDS011;47835;52.778;5.956;2022-11-20T11:47:20;8.40;;;5.68;;
61895;SDS011;47835;52.778;5.956;2022-11-20T11:49:47;8.18;;;5.32;;
61895;SDS011;47835;52.778;5.956;2022-11-20T11:52:16;10.07;;;5.78;;
61895;SDS011;47835;52.778;5.956;2022-11-20T11:57:20;14.50;;;8.02;;
61895;SDS011;47835;52.778;5.956;2022-11-20T11:59:57;22.38;;;12.13;;
61895;SDS011;47835;52.778;5.956;2022-11-20T12:02:35;22.42;;;13.57;;
61895;SDS011;47835;52.778;5.956;2022-11-20T12:05:18;20.83;;;12.35;;
61895;SDS011;47835;52.778;5.956;2022-11-20T12:08:03;20.42;;;12.55;;
61895;SDS011;47835;52.778;5.956;2022-11-20T12:13:24;19.10;;;11.25;;
61895;SDS011;47835;52.778;5.956;2022-11-20T12:15:51;21.45;;;11.98;;
61895;SDS011;47835;52.778;5.956;2022-11-20T12:18:18;16.63;;;10.77;;
61895;SDS011;47835;52.778;5.956;2022-11-20T12:21:02;15.55;;;10.95;;
61895;SDS011;47835;52.778;5.956;2022-11-20T12:34:51;16.65;;;14.57;;
61895;SDS011;47835;52.778;5.956;2022-11-20T12:37:38;18.60;;;14.70;;
61895;SDS011;47835;52.778;5.956;2022-11-20T12:40:11;17.75;;;13.32;;
61895;SDS011;47835;52.778;5.956;2022-11-20T12:47:07;15.65;;;13.15;;
61895;SDS011;47835;52.778;5.956;2022-11-20T12:54:27;17.08;;;12.18;;
61895;SDS011;47835;52.778;5.956;2022-11-20T13:00:15;14.25;;;11.07;;
61895;SDS011;47835;52.778;5.956;2022-11-20T13:08:36;13.45;;;9.63;;
61895;SDS011;47835;52.778;5.956;2022-11-20T13:16:48;12.30;;;9.43;;
61895;SDS011;47835;52.778;5.956;2022-11-20T13:19:36;11.07;;;9.20;;
61895;SDS011;47835;52.778;5.956;2022-11-20T13:22:02;13.55;;;8.30;;
61895;SDS011;47835;52.778;5.956;2022-11-20T13:24:29;10.60;;;8.85;;
61895;SDS011;47835;52.778;5.956;2022-11-20T13:26:59;11.05;;;7.75;;
61895;SDS011;47835;52.778;5.956;2022-11-20T13:29:26;11.48;;;8.15;;
61895;SDS011;47835;52.778;5.956;2022-11-20T13:32:00;10.25;;;7.35;;
61895;SDS011;47835;52.778;5.956;2022-11-20T13:34:28;12.38;;;7.20;;
61895;SDS011;47835;52.778;5.956;2022-11-20T13:36:56;9.23;;;6.68;;
61895;SDS011;47835;52.778;5.956;2022-11-20T13:39:27;10.02;;;7.18;;
61895;SDS011;47835;52.778;5.956;2022-11-20T13:41:55;8.48;;;7.05;;
61895;SDS011;47835;52.778;5.956;2022-11-20T13:46:54;10.38;;;6.40;;
61895;SDS011;47835;52.778;5.956;2022-11-20T13:54:55;8.82;;;6.13;;
61895;SDS011;47835;52.778;5.956;2022-11-20T14:00:27;8.57;;;5.80;;
61895;SDS011;47835;52.778;5.956;2022-11-20T14:05:31;8.15;;;5.60;;
61895;SDS011;47835;52.778;5.956;2022-11-20T14:08:00;7.85;;;5.38;;
61895;SDS011;47835;52.778;5.956;2022-11-20T14:10:29;7.43;;;5.40;;
61895;SDS011;47835;52.778;5.956;2022-11-20T14:12:55;9.23;;;5.47;;
61895;SDS011;47835;52.778;5.956;2022-11-20T14:15:25;7.90;;;5.70;;
61895;SDS011;47835;52.778;5.956;2022-11-20T14:17:59;9.40;;;5.90;;
61895;SDS011;47835;52.778;5.956;2022-11-20T14:20:36;10.25;;;6.60;;
61895;SDS011;47835;52.778;5.956;2022-11-20T14:23:03;12.23;;;6.18;;
61895;SDS011;47835;52.778;5.956;2022-11-20T14:25:30;7.93;;;5.97;;
61895;SDS011;47835;52.778;5.956;2022-11-20T14:27:59;11.25;;;6.32;;
61895;SDS011;47835;52.778;5.956;2022-11-20T14:30:35;8.40;;;6.05;;
61895;SDS011;47835;52.778;5.956;2022-11-20T14:35:37;8.52;;;6.35;;
61895;SDS011;47835;52.778;5.956;2022-11-20T14:38:14;9.60;;;6.30;;
61895;SDS011;47835;52.778;5.956;2022-11-20T14:40:41;9.90;;;6.65;;
61895;SDS011;47835;52.778;5.956;2022-11-20T14:43:27;7.75;;;6.00;;
61895;SDS011;47835;52.778;5.956;2022-11-20T14:45:57;8.75;;;6.60;;
61895;SDS011;47835;52.778;5.956;2022-11-20T14:48:27;8.45;;;6.63;;
61895;SDS011;47835;52.778;5.956;2022-11-20T14:50:58;9.30;;;6.35;;
61895;SDS011;47835;52.778;5.956;2022-11-20T14:53:24;11.40;;;6.47;;
61895;SDS011;47835;52.778;5.956;2022-11-20T14:56:01;8.63;;;5.65;;
61895;SDS011;47835;52.778;5.956;2022-11-20T14:58:28;6.80;;;5.15;;
61895;SDS011;47835;52.778;5.956;2022-11-20T15:01:03;8.70;;;6.30;;
61895;SDS011;47835;52.778;5.956;2022-11-20T15:03:30;6.32;;;4.88;;
61895;SDS011;47835;52.778;5.956;2022-11-20T15:06:10;8.10;;;5.70;;
61895;SDS011;47835;52.778;5.956;2022-11-20T15:08:37;10.43;;;5.28;;
61895;SDS011;47835;52.778;5.956;2022-11-20T15:11:03;7.60;;;5.13;;
61895;SDS011;47835;52.778;5.956;2022-11-20T15:13:52;6.97;;;5.30;;
61895;SDS011;47835;52.778;5.956;2022-11-20T15:16:19;7.18;;;5.88;;
61895;SDS011;47835;52.778;5.956;2022-11-20T15:18:45;9.63;;;6.22;;
61895;SDS011;47835;52.778;5.956;2022-11-20T15:21:16;7.68;;;6.22;;
61895;SDS011;47835;52.778;5.956;2022-11-20T15:23:43;9.27;;;6.55;;
61895;SDS011;47835;52.778;5.956;2022-11-20T15:26:09;8.75;;;6.05;;
61895;SDS011;47835;52.778;5.956;2022-11-20T15:28:38;6.85;;;6.15;;
61895;SDS011;47835;52.778;5.956;2022-11-20T15:31:05;7.38;;;5.95;;
61895;SDS011;47835;52.778;5.956;2022-11-20T15:33:32;9.48;;;6.30;;
61895;SDS011;47835;52.778;5.956;2022-11-20T15:35:58;8.95;;;6.28;;
61895;SDS011;47835;52.778;5.956;2022-11-20T15:38:24;8.07;;;6.68;;
61895;SDS011;47835;52.778;5.956;2022-11-20T15:40:51;7.35;;;5.82;;
61895;SDS011;47835;52.778;5.956;2022-11-20T15:43:17;7.60;;;6.32;;
61895;SDS011;47835;52.778;5.956;2022-11-20T15:45:53;10.75;;;7.22;;
61895;SDS011;47835;52.778;5.956;2022-11-20T15:48:23;8.48;;;6.72;;
61895;SDS011;47835;52.778;5.956;2022-11-20T15:53:39;8.10;;;6.35;;
61895;SDS011;47835;52.778;5.956;2022-11-20T15:56:06;8.68;;;6.85;;
61895;SDS011;47835;52.778;5.956;2022-11-20T15:58:40;8.77;;;7.28;;
61895;SDS011;47835;52.778;5.956;2022-11-20T16:01:13;10.02;;;7.53;;
61895;SDS011;47835;52.778;5.956;2022-11-20T16:03:41;19.00;;;17.20;;
61895;SDS011;47835;52.778;5.956;2022-11-20T16:06:07;19.65;;;17.83;;
61895;SDS011;47835;52.778;5.956;2022-11-20T16:08:33;19.17;;;17.50;;
61895;SDS011;47835;52.778;5.956;2022-11-20T16:10:59;19.25;;;17.55;;
61895;SDS011;47835;52.778;5.956;2022-11-20T16:13:24;18.60;;;16.90;;
61895;SDS011;47835;52.778;5.956;2022-11-20T16:16:17;19.30;;;17.58;;
61895;SDS011;47835;52.778;5.956;2022-11-20T16:18:50;17.55;;;16.05;;
61895;SDS011;47835;52.778;5.956;2022-11-20T16:21:16;17.65;;;16.05;;
61895;SDS011;47835;52.778;5.956;2022-11-20T16:23:42;16.45;;;14.85;;
61895;SDS011;47835;52.778;5.956;2022-11-20T16:26:17;16.17;;;14.45;;
61895;SDS011;47835;52.778;5.956;2022-11-20T16:28:43;15.43;;;14.02;;
61895;SDS011;47835;52.778;5.956;2022-11-20T16:31:10;14.00;;;12.75;;
61895;SDS011;47835;52.778;5.956;2022-11-20T16:33:37;13.95;;;12.65;;
61895;SDS011;47835;52.778;5.956;2022-11-20T16:36:08;13.90;;;12.50;;